Alvordton, Ohio
Current Conditions -  °F | °C
As of 7:55 PM on Thursday 30 Oct 2014 (Local Time) from KUSE Reporting Station
Overcast Overcast  
Wind Chill: 46°   Ceiling: 4600
Heat Index: 46°   Visibility: 10mi
Dew Point: 37°   Wind: 3mph
Humidity: 71%   Direction: 210°SSW
Pressure: 30.07"   Gusts: NA
Location:  41.67°N, 84.44°W
Report Text: KUSE 302355Z AUTO 21003KT 10SM OVC046 08/03 A3007 RMK AO2
Loading
Personal Weather Stations






























Interactive Weather Map
Tropical Storm Tracking
New forecast layout! Learn more

10-Day Weather Forecast

Advertisements
Track Severe Weather on mobile